createdAt,value
2023-05-05T00:01:38.288Z,100369.81
2023-05-05T00:04:06.818Z,100371.00
2023-05-05T00:06:34.530Z,100369.44
2023-05-05T00:09:02.196Z,100368.47
2023-05-05T00:11:29.889Z,100376.81
2023-05-05T00:13:58.943Z,100368.47
2023-05-05T00:16:27.007Z,100363.25
2023-05-05T00:18:54.712Z,100361.22
2023-05-05T00:21:22.434Z,100362.94
2023-05-05T00:23:50.188Z,100362.59
2023-05-05T00:26:17.927Z,100362.28
2023-05-05T00:28:45.672Z,100358.56
2023-05-05T00:31:16.775Z,100356.56
2023-05-05T00:33:44.475Z,100349.38
2023-05-05T00:36:12.209Z,100352.88
2023-05-05T00:38:39.914Z,100347.66
2023-05-05T00:41:07.712Z,100347.66
2023-05-05T00:43:35.942Z,100340.44
2023-05-05T00:46:10.609Z,100352.88
2023-05-05T00:48:39.850Z,100349.03
2023-05-05T00:51:09.335Z,100343.66
2023-05-05T00:53:39.718Z,100351.72
2023-05-05T00:56:07.993Z,100352.53
2023-05-05T00:58:37.547Z,100347.00
2023-05-05T01:01:05.474Z,100343.75
2023-05-05T01:03:33.328Z,100339.50
2023-05-05T01:06:15.377Z,100344.66
2023-05-05T01:08:52.577Z,100333.56
2023-05-05T01:11:27.048Z,100335.03
2023-05-05T01:14:07.096Z,100340.06
2023-05-05T01:16:37.451Z,100339.53
2023-05-05T01:19:22.343Z,100339.00
2023-05-05T01:21:57.076Z,100343.00
2023-05-05T01:24:45.097Z,100353.22
2023-05-05T01:27:31.824Z,100348.50
2023-05-05T01:30:11.654Z,100349.09
2023-05-05T01:32:45.004Z,100350.41
2023-05-05T01:35:19.399Z,100347.19
2023-05-05T01:37:50.678Z,100347.50
2023-05-05T01:40:23.994Z,100352.50
2023-05-05T01:42:52.820Z,100349.59
2023-05-05T01:45:23.354Z,100353.59
2023-05-05T01:47:55.898Z,100354.72
2023-05-05T01:50:24.022Z,100354.38
2023-05-05T01:52:53.685Z,100356.50
2023-05-05T01:55:24.055Z,100349.06
2023-05-05T01:57:53.019Z,100354.19
2023-05-05T02:00:22.686Z,100367.09
2023-05-05T02:02:53.206Z,100360.19
2023-05-05T02:05:22.954Z,100367.38
2023-05-05T02:07:52.012Z,100366.56
2023-05-05T02:10:20.189Z,100366.00
2023-05-05T02:12:49.580Z,100367.84
2023-05-05T02:15:18.284Z,100368.69
2023-05-05T02:17:48.212Z,100369.38
2023-05-05T02:20:19.515Z,100367.53
2023-05-05T02:22:47.848Z,100371.09
2023-05-05T02:25:17.617Z,100372.59
2023-05-05T02:27:47.402Z,100372.75
2023-05-05T02:30:19.082Z,100370.41
2023-05-05T02:32:51.881Z,100378.72
2023-05-05T02:35:24.116Z,100376.19
2023-05-05T02:37:59.597Z,100373.38
2023-05-05T02:40:29.779Z,100381.28
2023-05-05T02:42:59.930Z,100375.34
2023-05-05T02:45:29.514Z,100374.06
2023-05-05T02:47:57.340Z,100377.56
2023-05-05T02:50:26.413Z,100370.22
2023-05-05T02:52:54.174Z,100372.75
2023-05-05T02:55:21.936Z,100371.09
2023-05-05T02:57:54.803Z,100367.84
2023-05-05T03:00:29.710Z,100371.00
2023-05-05T03:03:13.961Z,100377.34
2023-05-05T03:05:47.978Z,100372.13
2023-05-05T03:08:19.401Z,100374.97
2023-05-05T03:10:52.689Z,100377.63
2023-05-05T03:13:25.228Z,100377.81
2023-05-05T03:15:54.192Z,100378.78
2023-05-05T03:18:25.280Z,100372.38
2023-05-05T03:20:55.063Z,100371.13
2023-05-05T03:23:23.061Z,100370.44
2023-05-05T03:25:52.086Z,100382.00
2023-05-05T03:28:19.778Z,100382.56
2023-05-05T03:30:47.572Z,100385.22
2023-05-05T03:33:16.781Z,100392.44
2023-05-05T03:35:44.512Z,100391.88
2023-05-05T03:38:13.543Z,100393.31
2023-05-05T03:40:44.616Z,100393.78
2023-05-05T03:43:12.933Z,100397.31
2023-05-05T03:45:40.642Z,100393.53
2023-05-05T03:48:09.607Z,100391.84
2023-05-05T03:50:37.705Z,100386.78
2023-05-05T03:53:05.538Z,100389.31
2023-05-05T03:55:34.706Z,100383.16
2023-05-05T03:58:02.482Z,100382.94
2023-05-05T04:00:30.722Z,100380.84
2023-05-05T04:02:58.495Z,100386.19
2023-05-05T04:05:27.093Z,100386.47
2023-05-05T04:07:54.826Z,100384.94
2023-05-05T04:10:22.515Z,100398.47
2023-05-05T04:12:51.664Z,100409.63
2023-05-05T04:15:19.391Z,100413.13
2023-05-05T04:17:47.201Z,100414.53
2023-05-05T04:20:14.904Z,100417.34
2023-05-05T04:22:42.632Z,100416.50
2023-05-05T04:25:10.927Z,100409.63
2023-05-05T04:27:38.686Z,100411.28
2023-05-05T04:30:09.726Z,100411.28
2023-05-05T04:32:37.579Z,100414.09
2023-05-05T04:35:05.728Z,100414.97
2023-05-05T04:37:33.545Z,100417.34
2023-05-05T04:40:01.272Z,100425.09
2023-05-05T04:42:29.055Z,100428.16
2023-05-05T04:44:56.830Z,100428.72
2023-05-05T04:47:25.897Z,100425.72
2023-05-05T04:49:56.022Z,100434.19
2023-05-05T04:52:23.858Z,100434.59
2023-05-05T04:54:51.649Z,100426.13
2023-05-05T04:57:19.377Z,100427.53
2023-05-05T04:59:47.171Z,100427.94
2023-05-05T05:02:15.053Z,100435.38
2023-05-05T05:04:44.222Z,100433.78
2023-05-05T05:07:12.152Z,100433.59
2023-05-05T05:09:40.042Z,100441.72
2023-05-05T05:12:09.652Z,100449.03
2023-05-05T05:14:38.224Z,100456.00
2023-05-05T05:17:06.124Z,100460.47
2023-05-05T05:19:33.850Z,100457.16
2023-05-05T05:22:03.006Z,100453.34
2023-05-05T05:24:30.765Z,100452.03
2023-05-05T05:26:58.711Z,100448.03
2023-05-05T05:29:27.087Z,100452.09
2023-05-05T05:31:55.251Z,100456.03
2023-05-05T05:34:23.100Z,100457.25
2023-05-05T05:36:50.819Z,100455.66
2023-05-05T05:39:19.941Z,100462.25
2023-05-05T05:41:47.759Z,100460.78
2023-05-05T05:44:15.645Z,100461.47
2023-05-05T05:46:43.788Z,100463.88
2023-05-05T05:49:11.569Z,100470.47
2023-05-05T05:51:39.388Z,100475.34
2023-05-05T05:54:07.496Z,100475.56
2023-05-05T05:56:36.594Z,100476.78
2023-05-05T05:59:07.951Z,100478.00
2023-05-05T06:01:36.726Z,100484.13
2023-05-05T06:04:04.816Z,100482.19
2023-05-05T06:06:32.674Z,100484.06
2023-05-05T06:09:00.822Z,100481.59
2023-05-05T06:11:28.653Z,100480.13
2023-05-05T06:13:57.810Z,100477.66
2023-05-05T06:16:25.595Z,100485.75
2023-05-05T06:18:53.541Z,100482.25
2023-05-05T06:21:21.344Z,100475.41
2023-05-05T06:23:49.062Z,100486.22
2023-05-05T06:26:16.899Z,100477.00
2023-05-05T06:28:44.697Z,100480.75
2023-05-05T06:31:14.426Z,100480.78
2023-05-05T06:33:42.235Z,100485.81
2023-05-05T06:36:10.279Z,100493.75
2023-05-05T06:38:38.036Z,100486.72
2023-05-05T06:41:06.683Z,100494.28
2023-05-05T06:43:34.500Z,100488.09
2023-05-05T06:46:02.271Z,100495.50
2023-05-05T06:48:31.445Z,100496.53
2023-05-05T06:50:59.259Z,100486.06
2023-05-05T06:53:27.037Z,100492.50
2023-05-05T06:55:54.807Z,100495.06
2023-05-05T06:58:22.545Z,100496.91
2023-05-05T07:00:50.439Z,100499.59
2023-05-05T07:03:18.328Z,100505.13
2023-05-05T07:05:47.565Z,100504.44
2023-05-05T07:08:15.349Z,100504.59
2023-05-05T07:10:43.216Z,100492.28
2023-05-05T07:13:11.017Z,100501.41
2023-05-05T07:15:38.830Z,100498.84
2023-05-05T07:18:06.788Z,100498.34
2023-05-05T07:20:34.715Z,100512.97
2023-05-05T07:23:03.842Z,100514.84
2023-05-05T07:25:31.560Z,100513.50
2023-05-05T07:27:59.604Z,100518.22
2023-05-05T07:30:27.352Z,100513.84
2023-05-05T07:32:55.782Z,100514.69
2023-05-05T07:35:23.776Z,100515.19
2023-05-05T07:37:51.948Z,100514.31
2023-05-05T07:40:21.274Z,100516.69
2023-05-05T07:42:49.045Z,100507.19
2023-05-05T07:45:16.872Z,100512.22
2023-05-05T07:47:44.796Z,100514.53
2023-05-05T07:50:12.655Z,100500.63
2023-05-05T07:55:11.426Z,100513.13
2023-05-05T07:57:40.695Z,100504.47
2023-05-05T08:00:10.262Z,100511.66
2023-05-05T08:02:38.467Z,100506.75
2023-05-05T08:05:07.115Z,100511.47
2023-05-05T08:07:36.466Z,100509.28
2023-05-05T08:10:04.433Z,100502.66
2023-05-05T08:12:32.187Z,100499.84
2023-05-05T08:15:01.267Z,100503.06
2023-05-05T08:17:29.065Z,100495.19
2023-05-05T08:19:56.786Z,100500.97
2023-05-05T08:22:24.449Z,100497.19
2023-05-05T08:24:52.181Z,100496.75
2023-05-05T08:27:20.301Z,100491.22
2023-05-05T08:29:48.028Z,100501.78
2023-05-05T08:32:17.976Z,100500.50
2023-05-05T08:34:45.870Z,100492.06
2023-05-05T08:37:13.717Z,100492.19
2023-05-05T08:39:41.512Z,100483.97
2023-05-05T08:42:09.207Z,100485.31
2023-05-05T08:44:37.565Z,100486.66
2023-05-05T08:47:07.188Z,100488.41
2023-05-05T08:49:43.211Z,100478.59
2023-05-05T08:52:14.788Z,100491.19
2023-05-05T08:54:47.355Z,100482.25
2023-05-05T08:57:21.169Z,100483.28
2023-05-05T08:59:50.914Z,100485.59
2023-05-05T09:02:23.821Z,100486.00
2023-05-05T09:04:53.386Z,100483.44
2023-05-05T09:07:21.607Z,100481.78
2023-05-05T09:09:50.347Z,100480.06
2023-05-05T09:12:18.634Z,100480.84
2023-05-05T09:14:47.516Z,100475.13
2023-05-05T09:17:24.676Z,100475.31
2023-05-05T09:20:05.375Z,100473.19
2023-05-05T09:22:37.801Z,100474.44
2023-05-05T09:25:06.728Z,100474.38
2023-05-05T09:27:37.503Z,100472.81
2023-05-05T09:30:06.634Z,100460.22
2023-05-05T09:32:45.458Z,100462.94
2023-05-05T09:35:15.051Z,100464.50
2023-05-05T09:37:42.995Z,100460.81
2023-05-05T09:40:11.941Z,100464.84
2023-05-05T09:42:40.789Z,100454.84
2023-05-05T09:45:26.175Z,100454.25
2023-05-05T09:47:59.215Z,100454.47
2023-05-05T09:50:32.589Z,100456.84
2023-05-05T09:53:02.426Z,100456.25
2023-05-05T09:55:31.971Z,100461.94
2023-05-05T09:58:18.251Z,100458.84
2023-05-05T10:00:46.427Z,100460.13
2023-05-05T10:03:14.474Z,100458.19
2023-05-05T10:05:51.935Z,100463.88
2023-05-05T10:08:21.390Z,100447.75
2023-05-05T10:10:52.394Z,100454.94
2023-05-05T10:13:21.628Z,100451.78
2023-05-05T10:15:52.060Z,100443.03
2023-05-05T10:18:24.359Z,100453.69
2023-05-05T10:20:58.322Z,100450.34
2023-05-05T10:23:32.029Z,100442.63
2023-05-05T10:26:03.137Z,100447.66
2023-05-05T10:28:33.996Z,100454.31
2023-05-05T10:31:07.581Z,100451.53
2023-05-05T10:33:46.402Z,100437.69
2023-05-05T10:36:17.016Z,100443.94
2023-05-05T10:38:46.379Z,100439.53
2023-05-05T10:41:15.099Z,100445.13
2023-05-05T10:43:43.609Z,100425.38
2023-05-05T10:46:11.974Z,100435.66
2023-05-05T10:48:47.972Z,100438.59
2023-05-05T10:51:39.216Z,100431.03
2023-05-05T10:54:14.936Z,100429.38
2023-05-05T10:56:44.122Z,100423.53
2023-05-05T10:59:45.261Z,100429.53
2023-05-05T11:02:23.622Z,100425.16
2023-05-05T11:05:22.596Z,100422.66
2023-05-05T11:07:52.878Z,100413.25
2023-05-05T11:10:23.033Z,100416.59
2023-05-05T11:13:20.241Z,100407.81
2023-05-05T11:15:48.879Z,100411.97
2023-05-05T11:18:37.518Z,100403.53
2023-05-05T11:21:23.041Z,100397.22
2023-05-05T11:23:53.068Z,100389.03
2023-05-05T11:26:50.445Z,100392.38
2023-05-05T11:29:18.297Z,100381.28
2023-05-05T11:31:47.804Z,100384.31
2023-05-05T11:34:29.034Z,100383.81
2023-05-05T11:36:59.955Z,100384.63
2023-05-05T11:39:40.180Z,100386.19
2023-05-05T11:42:26.084Z,100377.69
2023-05-05T11:44:54.798Z,100375.28
2023-05-05T11:47:28.237Z,100374.56
2023-05-05T11:49:56.786Z,100368.81
2023-05-05T11:52:30.930Z,100381.88
2023-05-05T11:55:03.856Z,100366.75
2023-05-05T11:57:32.143Z,100371.53
2023-05-05T12:00:02.140Z,100368.09
2023-05-05T12:02:31.531Z,100364.16
2023-05-05T12:05:00.477Z,100363.09
2023-05-05T12:07:29.875Z,100370.97
2023-05-05T12:09:57.815Z,100364.81
2023-05-05T12:12:37.232Z,100365.72
2023-05-05T12:15:06.418Z,100363.69
2023-05-05T12:17:39.994Z,100367.25
2023-05-05T12:20:09.061Z,100363.75
2023-05-05T12:22:37.108Z,100354.66
2023-05-05T12:25:07.010Z,100350.31
2023-05-05T12:27:37.051Z,100355.19
2023-05-05T12:30:16.553Z,100353.13
2023-05-05T12:32:45.060Z,100335.41
2023-05-05T12:35:14.724Z,100342.09
2023-05-05T12:37:43.540Z,100339.03
2023-05-05T12:40:45.213Z,100335.03
2023-05-05T12:43:26.616Z,100339.22
2023-05-05T12:46:02.412Z,100336.13
2023-05-05T12:48:30.759Z,100336.34
2023-05-05T12:51:14.717Z,100328.19
2023-05-05T12:53:42.786Z,100331.38
2023-05-05T12:56:36.085Z,100321.16
2023-05-05T12:59:07.752Z,100319.31
2023-05-05T13:01:36.220Z,100309.75
2023-05-05T13:04:12.771Z,100313.16
2023-05-05T13:06:42.937Z,100301.19
2023-05-05T13:09:23.101Z,100301.69
2023-05-05T13:11:51.077Z,100292.66
2023-05-05T13:14:20.267Z,100299.78
2023-05-05T13:16:48.173Z,100288.47
2023-05-05T13:19:16.129Z,100300.44
2023-05-05T13:21:44.373Z,100298.97
2023-05-05T13:24:21.473Z,100292.69
2023-05-05T13:26:54.089Z,100301.06
2023-05-05T13:29:26.152Z,100298.00
2023-05-05T13:31:56.412Z,100296.19
2023-05-05T13:34:24.085Z,100292.66
2023-05-05T13:36:51.908Z,100284.72
2023-05-05T13:39:20.002Z,100286.66
2023-05-05T13:41:48.126Z,100279.78
2023-05-05T13:44:15.998Z,100280.00
2023-05-05T13:46:45.254Z,100283.16
2023-05-05T13:49:13.184Z,100278.75
2023-05-05T13:51:41.112Z,100277.72
2023-05-05T13:54:09.756Z,100274.59
2023-05-05T13:56:37.823Z,100269.56
2023-05-05T13:59:05.732Z,100276.06
2023-05-05T14:01:33.814Z,100261.22
2023-05-05T14:04:05.435Z,100267.91
2023-05-05T14:06:33.847Z,100268.16
2023-05-05T14:09:01.860Z,100271.28
2023-05-05T14:11:31.597Z,100267.53
2023-05-05T14:13:59.532Z,100265.06
2023-05-05T14:16:27.584Z,100258.53
2023-05-05T14:18:55.535Z,100253.03
2023-05-05T14:21:24.796Z,100253.38
2023-05-05T14:23:52.663Z,100252.50
2023-05-05T14:26:20.480Z,100255.22
2023-05-05T14:28:49.886Z,100253.75
2023-05-05T14:31:18.535Z,100255.69
2023-05-05T14:33:46.446Z,100255.94
2023-05-05T14:36:14.378Z,100243.00
2023-05-05T14:38:43.893Z,100250.34
2023-05-05T14:41:12.046Z,100245.81
2023-05-05T14:43:39.900Z,100252.13
2023-05-05T14:46:07.897Z,100251.47
2023-05-05T14:48:35.973Z,100256.13
2023-05-05T14:51:04.264Z,100271.38
2023-05-05T14:53:32.083Z,100273.50
2023-05-05T14:56:02.235Z,100284.16
2023-05-05T14:58:31.168Z,100286.03
2023-05-05T15:00:59.066Z,100293.72
2023-05-05T15:03:27.108Z,100302.81
2023-05-05T15:05:55.043Z,100284.13
2023-05-05T15:08:23.163Z,100284.50
2023-05-05T15:10:51.013Z,100277.38
2023-05-05T15:13:20.266Z,100281.25
2023-05-05T15:15:48.984Z,100273.91
2023-05-05T15:18:16.961Z,100286.22
2023-05-05T15:20:44.880Z,100286.47
2023-05-05T15:23:13.865Z,100301.03
2023-05-05T15:25:41.732Z,100300.00
2023-05-05T15:28:09.586Z,100305.41
2023-05-05T15:30:38.842Z,100314.06
2023-05-05T15:33:06.815Z,100309.19
2023-05-05T15:35:34.805Z,100319.44
2023-05-05T15:38:02.755Z,100322.78
2023-05-05T15:40:30.686Z,100332.16
2023-05-05T15:42:59.452Z,100340.00
2023-05-05T15:45:27.435Z,100338.03
2023-05-05T15:47:56.893Z,100336.69
2023-05-05T15:50:24.717Z,100342.13
2023-05-05T15:52:52.583Z,100354.47
2023-05-05T15:55:20.465Z,100358.78
2023-05-05T15:57:48.284Z,100377.41
2023-05-05T16:00:16.631Z,100369.72
2023-05-05T16:02:45.466Z,100379.56
2023-05-05T16:05:15.366Z,100374.44
2023-05-05T16:07:43.572Z,100361.88
2023-05-05T16:10:12.035Z,100363.56
2023-05-05T16:12:40.087Z,100364.25
2023-05-05T16:15:08.927Z,100342.53
2023-05-05T16:17:36.932Z,100336.47
2023-05-05T16:20:05.395Z,100340.00
2023-05-05T16:22:34.588Z,100350.13
2023-05-05T16:25:02.381Z,100340.38
2023-05-05T16:27:30.187Z,100342.03
2023-05-05T16:29:59.715Z,100351.81
2023-05-05T16:32:27.760Z,100356.00
2023-05-05T16:34:55.623Z,100352.47
2023-05-05T16:37:23.534Z,100365.97
2023-05-05T16:39:52.717Z,100362.75
2023-05-05T16:42:20.777Z,100358.06
2023-05-05T16:44:48.579Z,100359.91
2023-05-05T16:47:16.396Z,100365.28
2023-05-05T16:49:44.264Z,100361.09
2023-05-05T16:52:12.098Z,100363.63
2023-05-05T16:54:39.842Z,100350.31
2023-05-05T16:57:09.063Z,100357.72
2023-05-05T16:59:37.052Z,100355.41
2023-05-05T17:02:04.930Z,100353.53
2023-05-05T17:04:32.795Z,100337.00
2023-05-05T17:07:00.599Z,100348.28
2023-05-05T17:09:28.377Z,100354.34
2023-05-05T17:11:56.239Z,100353.19
2023-05-05T17:14:26.570Z,100354.50
2023-05-05T17:16:54.546Z,100354.69
2023-05-05T17:19:22.304Z,100353.66
2023-05-05T17:21:50.253Z,100354.16
2023-05-05T17:24:18.015Z,100355.19
2023-05-05T17:26:45.836Z,100357.66
2023-05-05T17:29:14.330Z,100350.25
2023-05-05T17:31:43.467Z,100350.56
2023-05-05T17:34:11.424Z,100356.63
2023-05-05T17:36:39.284Z,100347.53
2023-05-05T17:39:07.436Z,100348.22
2023-05-05T17:41:35.280Z,100343.81
2023-05-05T17:44:03.224Z,100355.28
2023-05-05T17:46:31.084Z,100354.06
2023-05-05T17:49:00.462Z,100349.34
2023-05-05T17:51:28.577Z,100359.78
2023-05-05T17:53:56.451Z,100364.16
2023-05-05T17:56:24.250Z,100368.22
2023-05-05T17:58:52.547Z,100370.03
2023-05-05T18:01:23.791Z,100371.91
2023-05-05T18:03:51.883Z,100371.91
2023-05-05T18:06:21.140Z,100380.00
2023-05-05T18:08:49.392Z,100376.47
2023-05-05T18:11:17.251Z,100381.00
2023-05-05T18:13:45.087Z,100378.13
2023-05-05T18:16:12.938Z,100377.13
2023-05-05T18:18:41.367Z,100380.66
2023-05-05T18:21:12.173Z,100383.53
2023-05-05T18:23:41.650Z,100389.09
2023-05-05T18:26:09.863Z,100394.69
2023-05-05T18:28:38.470Z,100393.34
2023-05-05T18:31:06.586Z,100391.66
2023-05-05T18:33:34.476Z,100400.28
2023-05-05T18:36:03.360Z,100401.66
2023-05-05T18:38:32.707Z,100404.84
2023-05-05T18:41:02.000Z,100407.53
2023-05-05T18:43:29.809Z,100415.63
2023-05-05T18:45:57.621Z,100411.44
2023-05-05T18:48:26.214Z,100412.63
2023-05-05T18:50:53.928Z,100417.00
2023-05-05T18:53:21.752Z,100416.16
2023-05-05T18:55:49.599Z,100419.00
2023-05-05T18:58:19.648Z,100420.03
2023-05-05T19:00:47.580Z,100430.00
2023-05-05T19:03:15.518Z,100429.13
2023-05-05T19:05:43.326Z,100429.66
2023-05-05T19:08:11.355Z,100440.09
2023-05-05T19:10:39.302Z,100438.75
2023-05-05T19:13:07.851Z,100439.94
2023-05-05T19:15:37.152Z,100450.06
2023-05-05T19:18:06.466Z,100448.72
2023-05-05T19:20:34.447Z,100447.38
2023-05-05T19:23:04.465Z,100451.94
2023-05-05T19:25:32.703Z,100447.72
2023-05-05T19:28:00.583Z,100440.66
2023-05-05T19:30:28.618Z,100445.69
2023-05-05T19:32:57.966Z,100451.28
2023-05-05T19:35:26.151Z,100451.44
2023-05-05T19:37:54.869Z,100448.22
2023-05-05T19:40:22.886Z,100449.25
2023-05-05T19:42:50.650Z,100452.25
2023-05-05T19:45:19.071Z,100456.44
2023-05-05T19:47:47.131Z,100451.56
2023-05-05T19:50:16.554Z,100450.91
2023-05-05T19:52:44.396Z,100459.97
2023-05-05T19:55:13.177Z,100445.00
2023-05-05T19:57:41.731Z,100452.41
2023-05-05T20:00:11.019Z,100457.13
2023-05-05T20:02:39.234Z,100456.59
2023-05-05T20:05:07.971Z,100458.97
2023-05-05T20:07:37.248Z,100448.69
2023-05-05T20:10:05.711Z,100453.75
2023-05-05T20:12:33.516Z,100452.88
2023-05-05T20:15:01.322Z,100458.75
2023-05-05T20:17:29.235Z,100462.78
2023-05-05T20:19:57.689Z,100470.69
2023-05-05T20:22:26.454Z,100469.63
2023-05-05T20:24:55.775Z,100471.97
2023-05-05T20:27:24.172Z,100471.63
2023-05-05T20:29:53.120Z,100465.03
2023-05-05T20:32:20.871Z,100468.38
2023-05-05T20:34:48.751Z,100471.72
2023-05-05T20:37:16.739Z,100465.94
2023-05-05T20:39:44.565Z,100470.44
2023-05-05T20:42:13.708Z,100476.47
2023-05-05T20:44:42.151Z,100474.97
2023-05-05T20:47:10.013Z,100466.50
2023-05-05T20:49:37.888Z,100472.53
2023-05-05T20:52:06.008Z,100476.38
2023-05-05T20:54:34.646Z,100478.41
2023-05-05T20:57:03.139Z,100483.25
2023-05-05T20:59:32.438Z,100485.72
2023-05-05T21:02:00.331Z,100491.56
2023-05-05T21:04:28.224Z,100490.53
2023-05-05T21:06:57.447Z,100491.84
2023-05-05T21:09:26.059Z,100493.31
2023-05-05T21:11:53.907Z,100489.06
2023-05-05T21:14:21.969Z,100489.53
2023-05-05T21:16:51.124Z,100483.47
2023-05-05T21:19:18.954Z,100487.63
2023-05-05T21:21:46.735Z,100479.91
2023-05-05T21:24:15.113Z,100482.19
2023-05-05T21:26:44.112Z,100483.50
2023-05-05T21:29:12.165Z,100475.09
2023-05-05T21:31:40.158Z,100482.44
2023-05-05T21:34:09.368Z,100480.22
2023-05-05T21:36:38.676Z,100485.88
2023-05-05T21:39:06.758Z,100475.28
2023-05-05T21:41:34.672Z,100480.66
2023-05-05T21:44:02.681Z,100479.81
2023-05-05T21:46:30.594Z,100472.06
2023-05-05T21:48:58.601Z,100476.88
2023-05-05T21:51:27.899Z,100469.00
2023-05-05T21:53:56.042Z,100467.16
2023-05-05T21:56:23.934Z,100468.47
2023-05-05T21:58:51.759Z,100469.44
2023-05-05T22:01:19.662Z,100466.91
2023-05-05T22:03:48.003Z,100466.38
2023-05-05T22:06:17.439Z,100478.44
2023-05-05T22:08:47.286Z,100473.06
2023-05-05T22:11:15.560Z,100475.75
2023-05-05T22:13:43.479Z,100478.72
2023-05-05T22:16:12.594Z,100483.41
2023-05-05T22:18:40.575Z,100485.53
2023-05-05T22:21:08.369Z,100490.69
2023-05-05T22:23:37.110Z,100493.81
2023-05-05T22:26:06.721Z,100484.38
2023-05-05T22:28:34.569Z,100482.81
2023-05-05T22:31:02.813Z,100486.53
2023-05-05T22:33:31.603Z,100480.75
2023-05-05T22:35:59.476Z,100485.72
2023-05-05T22:38:27.391Z,100482.50
2023-05-05T22:40:55.284Z,100486.34
2023-05-05T22:43:24.463Z,100489.16
2023-05-05T22:45:52.388Z,100490.47
2023-05-05T22:48:20.213Z,100484.22
2023-05-05T22:50:48.114Z,100487.50
2023-05-05T22:53:15.965Z,100489.34
2023-05-05T22:55:44.004Z,100487.81
2023-05-05T22:58:11.924Z,100492.34
2023-05-05T23:00:41.164Z,100496.00
2023-05-05T23:03:09.578Z,100493.19
2023-05-05T23:05:38.422Z,100495.31
2023-05-05T23:08:06.683Z,100490.09
2023-05-05T23:10:34.472Z,100484.03
2023-05-05T23:13:02.390Z,100490.22
2023-05-05T23:15:30.946Z,100489.53
2023-05-05T23:18:00.300Z,100487.31
2023-05-05T23:20:28.472Z,100483.94
2023-05-05T23:22:56.893Z,100480.53
2023-05-05T23:25:24.718Z,100483.53
2023-05-05T23:27:52.914Z,100482.84
2023-05-05T23:30:20.867Z,100483.81
2023-05-05T23:32:48.717Z,100488.47
2023-05-05T23:35:18.122Z,100487.94
2023-05-05T23:37:45.874Z,100484.28
2023-05-05T23:40:13.779Z,100485.53
2023-05-05T23:42:41.613Z,100489.31
2023-05-05T23:45:11.310Z,100487.78
2023-05-05T23:47:39.378Z,100497.94
2023-05-05T23:50:08.527Z,100497.09
2023-05-05T23:52:37.742Z,100493.16
2023-05-05T23:55:06.731Z,100482.44
2023-05-05T23:57:35.919Z,100487.09
